createdAt,value
2023-05-07T00:01:37.762Z,97627.75
2023-05-07T00:04:08.737Z,97627.68
2023-05-07T00:06:38.791Z,97625.20
2023-05-07T00:09:09.115Z,97621.96
2023-05-07T00:11:39.101Z,97618.50
2023-05-07T00:14:09.232Z,97616.41
2023-05-07T00:16:39.315Z,97614.88
2023-05-07T00:19:09.412Z,97609.60
2023-05-07T00:21:39.498Z,97607.38
2023-05-07T00:24:29.776Z,97612.94
2023-05-07T00:26:59.739Z,97618.08
2023-05-07T00:29:30.089Z,97619.98
2023-05-07T00:32:00.432Z,97624.63
2023-05-07T00:34:31.769Z,97629.59
2023-05-07T00:37:03.040Z,97634.66
2023-05-07T00:39:34.591Z,97635.86
2023-05-07T00:42:04.950Z,97639.67
2023-05-07T00:44:35.036Z,97641.39
2023-05-07T00:47:06.543Z,97639.58
2023-05-07T00:49:41.906Z,97641.16
2023-05-07T00:52:12.849Z,97643.10
2023-05-07T00:54:43.811Z,97649.05
2023-05-07T00:57:13.891Z,97647.52
2023-05-07T00:59:44.082Z,97649.73
2023-05-07T01:02:14.218Z,97653.55
2023-05-07T01:04:44.650Z,97656.33
2023-05-07T01:07:15.840Z,97656.66
2023-05-07T01:09:46.041Z,97662.01
2023-05-07T01:12:16.421Z,97655.38
2023-05-07T01:14:46.558Z,97658.05
2023-05-07T01:17:16.648Z,97653.14
2023-05-07T01:19:50.462Z,97651.63
2023-05-07T01:22:30.231Z,97650.17
2023-05-07T01:25:02.283Z,97645.09
2023-05-07T01:27:34.324Z,97650.61
2023-05-07T01:30:05.431Z,97648.58
2023-05-07T01:32:44.673Z,97648.56
2023-05-07T01:35:18.843Z,97652.56
2023-05-07T01:37:49.595Z,97652.60
2023-05-07T01:40:19.951Z,97658.15
2023-05-07T01:42:50.126Z,97658.98
2023-05-07T01:45:20.478Z,97658.67
2023-05-07T01:47:50.840Z,97663.41
2023-05-07T01:50:21.933Z,97661.52
2023-05-07T01:52:54.298Z,97666.66
2023-05-07T01:55:24.958Z,97666.16
2023-05-07T01:57:55.148Z,97663.58
2023-05-07T02:00:26.774Z,97665.46
2023-05-07T02:02:57.268Z,97668.77
2023-05-07T02:05:32.507Z,97669.95
2023-05-07T02:08:07.746Z,97668.59
2023-05-07T02:10:38.458Z,97674.52
2023-05-07T02:13:09.650Z,97678.18
2023-05-07T02:15:39.879Z,97679.58
2023-05-07T02:18:12.215Z,97678.70
2023-05-07T02:20:42.157Z,97674.69
2023-05-07T02:23:12.221Z,97674.67
2023-05-07T02:25:42.250Z,97669.54
2023-05-07T02:28:12.272Z,97670.80
2023-05-07T02:30:53.195Z,97668.31
2023-05-07T02:33:23.562Z,97670.61
2023-05-07T02:35:54.084Z,97670.98
2023-05-07T02:38:24.874Z,97671.67
2023-05-07T02:40:54.730Z,97671.92
2023-05-07T02:43:24.923Z,97674.29
2023-05-07T02:46:04.257Z,97676.02
2023-05-07T02:48:35.105Z,97677.02
2023-05-07T02:51:06.685Z,97680.14
2023-05-07T02:53:37.440Z,97680.45
2023-05-07T02:56:08.452Z,97680.64
2023-05-07T02:58:40.099Z,97681.44
2023-05-07T03:01:10.968Z,97680.98
2023-05-07T03:03:45.447Z,97683.88
2023-05-07T03:06:16.082Z,97685.79
2023-05-07T03:08:46.011Z,97692.01
2023-05-07T03:11:15.867Z,97691.81
2023-05-07T03:13:45.891Z,97695.27
2023-05-07T03:16:15.860Z,97698.27
2023-05-07T03:18:45.753Z,97698.27
2023-05-07T03:21:15.898Z,97702.27
2023-05-07T03:23:45.881Z,97703.81
2023-05-07T03:26:16.198Z,97707.46
2023-05-07T03:28:47.859Z,97710.39
2023-05-07T03:31:19.808Z,97714.23
2023-05-07T03:33:57.274Z,97714.92
2023-05-07T03:36:28.164Z,97718.60
2023-05-07T03:38:58.482Z,97719.38
2023-05-07T03:41:31.077Z,97723.33
2023-05-07T03:44:01.099Z,97720.84
2023-05-07T03:46:31.298Z,97725.16
2023-05-07T03:49:01.833Z,97730.27
2023-05-07T03:51:33.029Z,97727.66
2023-05-07T03:54:03.579Z,97730.06
2023-05-07T03:56:34.486Z,97733.88
2023-05-07T03:59:04.683Z,97741.48
2023-05-07T04:01:34.794Z,97740.30
2023-05-07T04:04:05.485Z,97744.76
2023-05-07T04:06:36.910Z,97743.69
2023-05-07T04:09:07.189Z,97748.50
2023-05-07T04:11:38.053Z,97750.70
2023-05-07T04:14:10.568Z,97749.85
2023-05-07T04:16:40.901Z,97755.17
2023-05-07T04:19:11.601Z,97759.47
2023-05-07T04:21:41.990Z,97761.38
2023-05-07T04:24:12.620Z,97767.38
2023-05-07T04:26:42.564Z,97768.78
2023-05-07T04:29:12.889Z,97770.96
2023-05-07T04:31:45.120Z,97774.86
2023-05-07T04:34:15.634Z,97779.72
2023-05-07T04:36:46.933Z,97784.00
2023-05-07T04:39:17.638Z,97784.29
2023-05-07T04:41:48.759Z,97786.85
2023-05-07T04:44:19.027Z,97790.16
2023-05-07T04:46:49.145Z,97796.91
2023-05-07T04:49:18.944Z,97800.56
2023-05-07T04:51:48.807Z,97801.07
2023-05-07T04:54:20.336Z,97807.30
2023-05-07T04:56:50.857Z,97811.04
2023-05-07T04:59:21.166Z,97811.88
2023-05-07T05:01:51.409Z,97813.30
2023-05-07T05:04:22.327Z,97814.17
2023-05-07T05:06:52.379Z,97820.85
2023-05-07T05:09:22.222Z,97825.27
2023-05-07T05:11:52.308Z,97824.89
2023-05-07T05:14:22.267Z,97830.51
2023-05-07T05:16:52.684Z,97831.02
2023-05-07T05:19:22.945Z,97836.89
2023-05-07T05:21:53.171Z,97838.84
2023-05-07T05:24:23.303Z,97843.83
2023-05-07T05:26:56.011Z,97843.11
2023-05-07T05:29:27.002Z,97848.97
2023-05-07T05:31:57.155Z,97849.00
2023-05-07T05:34:28.777Z,97850.56
2023-05-07T05:37:00.238Z,97854.88
2023-05-07T05:39:30.581Z,97858.34
2023-05-07T05:42:00.753Z,97862.10
2023-05-07T05:44:30.991Z,97859.53
2023-05-07T05:47:01.261Z,97862.45
2023-05-07T05:49:31.702Z,97863.30
2023-05-07T05:52:01.825Z,97868.10
2023-05-07T05:54:32.489Z,97867.20
2023-05-07T05:57:04.819Z,97870.74
2023-05-07T05:59:34.929Z,97873.36
2023-05-07T06:02:05.141Z,97877.47
2023-05-07T06:04:35.548Z,97877.69
2023-05-07T06:07:05.771Z,97874.65
2023-05-07T06:09:35.898Z,97876.02
2023-05-07T06:12:06.050Z,97879.77
2023-05-07T06:14:35.960Z,97879.78
2023-05-07T06:17:06.242Z,97883.90
2023-05-07T06:19:36.481Z,97885.63
2023-05-07T06:22:06.876Z,97885.92
2023-05-07T06:24:37.204Z,97888.80
2023-05-07T06:27:08.717Z,97888.98
2023-05-07T06:29:38.896Z,97890.00
2023-05-07T06:32:14.545Z,97890.33
2023-05-07T06:34:46.423Z,97894.27
2023-05-07T06:37:17.035Z,97896.81
2023-05-07T06:40:00.046Z,97898.52
2023-05-07T06:42:30.631Z,97898.36
2023-05-07T06:45:03.397Z,97902.64
2023-05-07T06:47:34.205Z,97904.20
2023-05-07T06:50:07.296Z,97907.33
2023-05-07T06:52:38.116Z,97909.64
2023-05-07T06:55:11.793Z,97910.66
2023-05-07T06:57:41.869Z,97911.47
2023-05-07T07:00:14.192Z,97913.36
2023-05-07T07:02:51.205Z,97916.96
2023-05-07T07:05:24.252Z,97921.25
2023-05-07T07:07:54.772Z,97927.13
2023-05-07T07:10:25.470Z,97928.67
2023-05-07T07:12:55.874Z,97930.42
2023-05-07T07:15:26.565Z,97935.29
2023-05-07T07:17:57.817Z,97939.40
2023-05-07T07:20:28.596Z,97941.48
2023-05-07T07:22:59.028Z,97948.48
2023-05-07T07:25:29.233Z,97949.02
2023-05-07T07:27:59.888Z,97951.55
2023-05-07T07:30:30.816Z,97953.61
2023-05-07T07:33:03.273Z,97954.46
2023-05-07T07:35:35.575Z,97960.30
2023-05-07T07:38:08.001Z,97960.98
2023-05-07T07:40:39.517Z,97963.05
2023-05-07T07:43:11.986Z,97963.98
2023-05-07T07:45:43.260Z,97967.02
2023-05-07T07:48:15.015Z,97965.46
2023-05-07T07:50:46.643Z,97964.65
2023-05-07T07:53:20.553Z,97968.06
2023-05-07T07:55:52.049Z,97972.85
2023-05-07T07:58:25.771Z,97979.77
2023-05-07T08:00:58.575Z,97981.30
2023-05-07T08:03:33.395Z,97986.08
2023-05-07T08:06:07.874Z,97984.16
2023-05-07T08:08:39.508Z,97985.52
2023-05-07T08:11:11.874Z,97992.42
2023-05-07T08:13:43.086Z,97993.29
2023-05-07T08:16:15.250Z,97991.14
2023-05-07T08:18:46.849Z,97992.70
2023-05-07T08:21:18.817Z,97997.31
2023-05-07T08:23:50.191Z,98000.71
2023-05-07T08:26:21.404Z,98005.52
2023-05-07T08:28:53.154Z,98008.98
2023-05-07T08:31:24.853Z,98007.90
2023-05-07T08:33:56.785Z,98007.39
2023-05-07T08:36:27.893Z,98013.40
2023-05-07T08:38:59.963Z,98016.15
2023-05-07T08:41:32.592Z,98021.81
2023-05-07T08:44:08.689Z,98023.56
2023-05-07T08:46:41.583Z,98027.14
2023-05-07T08:49:13.743Z,98029.49
2023-05-07T08:51:46.563Z,98029.16
2023-05-07T08:54:20.698Z,98033.09
2023-05-07T08:56:53.632Z,98039.44
2023-05-07T08:59:25.176Z,98040.48
2023-05-07T09:01:56.958Z,98047.52
2023-05-07T09:04:29.350Z,98046.13
2023-05-07T09:07:06.685Z,98047.02
2023-05-07T09:09:41.378Z,98054.37
2023-05-07T09:12:13.077Z,98060.20
2023-05-07T09:14:46.041Z,98059.00
2023-05-07T09:17:19.059Z,98061.58
2023-05-07T09:19:50.883Z,98066.00
2023-05-07T09:22:22.937Z,98069.64
2023-05-07T09:25:04.996Z,98072.55
2023-05-07T09:27:36.589Z,98072.20
2023-05-07T09:30:10.007Z,98072.14
2023-05-07T09:32:42.103Z,98079.66
2023-05-07T09:35:22.477Z,98084.23
2023-05-07T09:37:57.594Z,98084.20
2023-05-07T09:40:30.401Z,98087.11
2023-05-07T09:43:14.979Z,98088.64
2023-05-07T09:45:56.808Z,98088.47
2023-05-07T09:48:30.993Z,98091.19
2023-05-07T09:51:04.518Z,98086.71
2023-05-07T09:53:36.700Z,98088.29
2023-05-07T09:56:08.368Z,98091.90
2023-05-07T09:58:49.107Z,98087.91
2023-05-07T10:01:23.386Z,98088.42
2023-05-07T10:03:56.287Z,98090.80
2023-05-07T10:06:27.758Z,98089.56
2023-05-07T10:08:58.933Z,98091.68
2023-05-07T10:11:32.207Z,98092.50
2023-05-07T10:14:16.092Z,98095.05
2023-05-07T10:16:58.711Z,98101.84
2023-05-07T10:19:30.898Z,98101.56
2023-05-07T10:22:23.066Z,98108.91
2023-05-07T10:24:59.380Z,98110.23
2023-05-07T10:27:30.549Z,98111.70
2023-05-07T10:30:09.020Z,98108.80
2023-05-07T10:32:47.221Z,98111.31
2023-05-07T10:35:25.888Z,98115.42
2023-05-07T10:37:56.166Z,98116.65
2023-05-07T10:40:27.406Z,98124.30
2023-05-07T10:43:00.394Z,98123.98
2023-05-07T10:45:30.650Z,98127.58
2023-05-07T10:51:23.711Z,98131.84
2023-05-07T10:54:23.436Z,98141.33
2023-05-07T10:57:33.833Z,98144.76
2023-05-07T11:00:44.917Z,98149.60
2023-05-07T11:03:23.058Z,98148.25
2023-05-07T11:06:14.302Z,98144.59
2023-05-07T11:08:59.078Z,98153.84
2023-05-07T11:11:49.006Z,98157.67
2023-05-07T11:14:50.456Z,98161.34
2023-05-07T11:17:34.877Z,98161.90
2023-05-07T11:20:11.051Z,98164.27
2023-05-07T11:22:55.445Z,98163.02
2023-05-07T11:25:41.991Z,98165.79
2023-05-07T11:28:26.939Z,98166.71
2023-05-07T11:31:03.939Z,98163.89
2023-05-07T11:33:33.934Z,98167.38
2023-05-07T11:36:07.032Z,98170.82
2023-05-07T11:38:40.458Z,98174.09
2023-05-07T11:41:10.909Z,98173.92
2023-05-07T11:43:55.230Z,98177.19
2023-05-07T11:46:25.473Z,98173.84
2023-05-07T11:48:56.122Z,98172.61
2023-05-07T11:51:30.584Z,98174.27
2023-05-07T11:54:00.840Z,98178.91
2023-05-07T11:56:31.010Z,98182.70
2023-05-07T11:59:01.222Z,98181.96
2023-05-07T12:01:31.339Z,98184.84
2023-05-07T12:04:04.492Z,98186.34
2023-05-07T12:06:39.385Z,98186.09
2023-05-07T12:09:12.287Z,98187.57
2023-05-07T12:11:48.459Z,98194.06
2023-05-07T12:14:18.641Z,98194.30
2023-05-07T12:16:49.110Z,98196.91
2023-05-07T12:19:19.537Z,98199.09
2023-05-07T12:21:49.937Z,98203.10
2023-05-07T12:24:21.983Z,98208.63
2023-05-07T12:26:52.260Z,98204.86
2023-05-07T12:29:25.083Z,98208.74
2023-05-07T12:31:55.377Z,98206.17
2023-05-07T12:34:25.996Z,98209.79
2023-05-07T12:36:56.654Z,98210.13
2023-05-07T12:39:26.802Z,98209.13
2023-05-07T12:41:59.379Z,98214.65
2023-05-07T12:44:32.898Z,98215.34
2023-05-07T12:47:04.161Z,98215.63
2023-05-07T12:49:38.307Z,98214.77
2023-05-07T12:52:08.834Z,98215.45
2023-05-07T12:54:40.571Z,98218.38
2023-05-07T12:57:11.327Z,98217.19
2023-05-07T12:59:42.591Z,98218.96
2023-05-07T13:02:12.654Z,98224.25
2023-05-07T13:04:44.215Z,98219.73
2023-05-07T13:07:14.311Z,98222.13
2023-05-07T13:09:44.233Z,98222.13
2023-05-07T13:12:14.601Z,98222.48
2023-05-07T13:14:44.582Z,98223.03
2023-05-07T13:17:14.617Z,98217.90
2023-05-07T13:19:44.586Z,98222.54
2023-05-07T13:22:14.507Z,98221.81
2023-05-07T13:24:44.659Z,98222.37
2023-05-07T13:27:14.639Z,98225.52
2023-05-07T13:29:46.210Z,98227.95
2023-05-07T13:32:16.807Z,98231.36
2023-05-07T13:34:46.971Z,98236.67
2023-05-07T13:37:17.035Z,98237.34
2023-05-07T13:39:46.901Z,98239.41
2023-05-07T13:42:16.680Z,98244.49
2023-05-07T13:44:46.729Z,98249.84
2023-05-07T13:47:17.113Z,98245.38
2023-05-07T13:49:47.068Z,98245.21
2023-05-07T13:52:16.959Z,98246.23
2023-05-07T13:54:46.841Z,98245.77
2023-05-07T13:57:17.017Z,98249.86
2023-05-07T13:59:46.804Z,98254.21
2023-05-07T14:02:17.482Z,98253.73
2023-05-07T14:04:47.277Z,98260.30
2023-05-07T14:07:17.321Z,98259.09
2023-05-07T14:09:47.312Z,98258.58
2023-05-07T14:12:17.195Z,98260.99
2023-05-07T14:14:47.495Z,98263.30
2023-05-07T14:17:17.852Z,98262.78
2023-05-07T14:19:47.919Z,98267.11
2023-05-07T14:22:18.019Z,98269.87
2023-05-07T14:24:55.990Z,98269.20
2023-05-07T14:27:35.632Z,98271.80
2023-05-07T14:30:06.515Z,98274.59
2023-05-07T14:32:36.605Z,98277.68
2023-05-07T14:35:07.503Z,98282.16
2023-05-07T14:37:37.737Z,98286.96
2023-05-07T14:40:10.529Z,98292.30
2023-05-07T14:42:41.921Z,98291.77
2023-05-07T14:45:13.683Z,98291.08
2023-05-07T14:47:43.824Z,98292.10
2023-05-07T14:50:15.511Z,98288.83
2023-05-07T14:52:45.697Z,98294.81
2023-05-07T14:55:15.689Z,98294.10
2023-05-07T14:57:45.802Z,98298.06
2023-05-07T15:00:16.744Z,98299.77
2023-05-07T15:02:47.056Z,98302.88
2023-05-07T15:05:18.147Z,98300.50
2023-05-07T15:07:48.341Z,98305.29
2023-05-07T15:10:18.866Z,98309.75
2023-05-07T15:12:49.101Z,98309.56
2023-05-07T15:15:19.166Z,98311.64
2023-05-07T15:17:49.164Z,98312.32
2023-05-07T15:20:19.362Z,98311.68
2023-05-07T15:22:50.112Z,98313.75
2023-05-07T15:25:21.428Z,98316.84
2023-05-07T15:27:52.592Z,98317.02
2023-05-07T15:30:22.922Z,98319.58
2023-05-07T15:32:53.182Z,98324.58
2023-05-07T15:35:23.405Z,98322.52
2023-05-07T15:37:53.836Z,98327.67
2023-05-07T15:40:24.249Z,98328.03
2023-05-07T15:42:57.291Z,98318.75
2023-05-07T15:45:27.397Z,98319.25
2023-05-07T15:47:57.580Z,98325.95
2023-05-07T15:50:27.387Z,98330.43
2023-05-07T15:52:57.914Z,98333.52
2023-05-07T15:55:27.941Z,98330.09
2023-05-07T15:57:57.978Z,98335.23
2023-05-07T16:00:28.832Z,98333.54
2023-05-07T16:02:58.927Z,98334.05
2023-05-07T16:05:28.931Z,98333.70
2023-05-07T16:07:59.884Z,98330.95
2023-05-07T16:10:30.022Z,98331.31
2023-05-07T16:13:01.162Z,98328.74
2023-05-07T16:15:31.032Z,98331.33
2023-05-07T16:18:01.215Z,98334.41
2023-05-07T16:20:31.996Z,98334.94
2023-05-07T16:23:01.970Z,98334.25
2023-05-07T16:25:32.151Z,98336.30
2023-05-07T16:28:02.293Z,98334.77
2023-05-07T16:30:32.730Z,98331.50
2023-05-07T16:33:02.889Z,98331.15
2023-05-07T16:35:32.813Z,98332.52
2023-05-07T16:38:09.306Z,98329.62
2023-05-07T16:40:40.739Z,98334.08
2023-05-07T16:43:11.976Z,98333.91
2023-05-07T16:45:41.963Z,98335.79
2023-05-07T16:48:12.369Z,98334.24
2023-05-07T16:50:44.249Z,98334.75
2023-05-07T16:53:14.302Z,98334.59
2023-05-07T16:55:44.271Z,98338.02
2023-05-07T16:58:15.115Z,98340.27
2023-05-07T17:03:18.445Z,98340.24
2023-05-07T17:05:48.726Z,98347.14
2023-05-07T17:08:19.083Z,98345.09
2023-05-07T17:10:49.035Z,98347.66
2023-05-07T17:13:19.230Z,98343.69
2023-05-07T17:15:49.067Z,98350.39
2023-05-07T17:18:19.804Z,98351.24
2023-05-07T17:20:50.506Z,98354.67
2023-05-07T17:23:20.686Z,98357.77
2023-05-07T17:25:50.871Z,98363.95
2023-05-07T17:28:20.753Z,98372.20
2023-05-07T17:30:50.951Z,98375.96
2023-05-07T17:33:22.321Z,98380.10
2023-05-07T17:35:55.084Z,98380.42
2023-05-07T17:38:25.776Z,98383.02
2023-05-07T17:40:55.733Z,98384.56
2023-05-07T17:43:26.006Z,98383.36
2023-05-07T17:45:56.146Z,98386.61
2023-05-07T17:48:26.489Z,98378.90
2023-05-07T17:51:02.991Z,98381.64
2023-05-07T17:53:33.288Z,98378.56
2023-05-07T17:56:03.436Z,98379.05
2023-05-07T17:58:36.523Z,98386.10
2023-05-07T18:01:11.768Z,98384.22
2023-05-07T18:03:42.022Z,98390.91
2023-05-07T18:06:17.409Z,98390.23
2023-05-07T18:08:47.983Z,98390.91
2023-05-07T18:11:17.917Z,98395.89
2023-05-07T18:13:47.974Z,98399.99
2023-05-07T18:16:18.270Z,98402.89
2023-05-07T18:18:49.152Z,98406.45
2023-05-07T18:21:19.179Z,98411.44
2023-05-07T18:23:49.845Z,98418.12
2023-05-07T18:26:21.217Z,98420.17
2023-05-07T18:28:54.187Z,98420.65
2023-05-07T18:31:27.858Z,98419.48
2023-05-07T18:34:01.523Z,98420.50
2023-05-07T18:36:32.972Z,98422.23
2023-05-07T18:39:04.639Z,98427.55
2023-05-07T18:41:37.762Z,98425.48
2023-05-07T18:44:11.418Z,98427.38
2023-05-07T18:46:44.285Z,98428.23
2023-05-07T18:49:14.919Z,98432.82
2023-05-07T18:51:45.365Z,98431.61
2023-05-07T18:54:15.196Z,98432.66
2023-05-07T18:56:46.107Z,98434.35
2023-05-07T18:59:15.915Z,98436.25
2023-05-07T19:01:46.527Z,98436.08
2023-05-07T19:04:17.813Z,98438.65
2023-05-07T19:06:47.848Z,98444.80
2023-05-07T19:09:17.837Z,98443.63
2023-05-07T19:11:48.047Z,98450.14
2023-05-07T19:14:17.979Z,98451.85
2023-05-07T19:16:47.889Z,98451.86
2023-05-07T19:19:17.795Z,98449.47
2023-05-07T19:21:48.031Z,98448.28
2023-05-07T19:24:18.909Z,98448.11
2023-05-07T19:26:51.245Z,98453.61
2023-05-07T19:29:21.638Z,98453.09
2023-05-07T19:31:52.119Z,98454.27
2023-05-07T19:34:24.706Z,98456.19
2023-05-07T19:36:55.947Z,98456.02
2023-05-07T19:39:27.441Z,98450.85
2023-05-07T19:41:58.069Z,98452.74
2023-05-07T19:44:29.379Z,98453.59
2023-05-07T19:47:03.886Z,98452.54
2023-05-07T19:49:34.271Z,98455.29
2023-05-07T19:52:04.933Z,98456.82
2023-05-07T19:54:36.420Z,98463.52
2023-05-07T19:57:06.755Z,98466.26
2023-05-07T19:59:37.173Z,98466.93
2023-05-07T20:02:07.509Z,98462.30
2023-05-07T20:04:38.119Z,98465.89
2023-05-07T20:07:08.591Z,98462.27
2023-05-07T20:09:38.853Z,98466.56
2023-05-07T20:12:10.069Z,98471.37
2023-05-07T20:14:43.222Z,98472.23
2023-05-07T20:17:13.366Z,98471.89
2023-05-07T20:19:43.519Z,98474.11
2023-05-07T20:22:14.238Z,98475.13
2023-05-07T20:24:44.573Z,98475.61
2023-05-07T20:27:15.686Z,98473.93
2023-05-07T20:29:49.824Z,98469.30
2023-05-07T20:32:20.563Z,98472.73
2023-05-07T20:34:52.977Z,98474.42
2023-05-07T20:37:23.430Z,98473.55
2023-05-07T20:39:53.741Z,98479.60
2023-05-07T20:42:28.272Z,98479.58
2023-05-07T20:44:58.463Z,98479.03
2023-05-07T20:47:28.427Z,98475.25
2023-05-07T20:49:58.356Z,98482.80
2023-05-07T20:52:28.413Z,98481.25
2023-05-07T20:54:58.354Z,98484.46
2023-05-07T20:57:28.676Z,98483.81
2023-05-07T20:59:58.971Z,98487.24
2023-05-07T21:02:29.064Z,98492.70
2023-05-07T21:04:59.932Z,98490.67
2023-05-07T21:07:30.292Z,98493.77
2023-05-07T21:10:00.251Z,98493.25
2023-05-07T21:12:30.328Z,98498.04
2023-05-07T21:15:00.524Z,98498.57
2023-05-07T21:17:31.471Z,98499.23
2023-05-07T21:20:03.947Z,98498.90
2023-05-07T21:22:33.846Z,98501.13
2023-05-07T21:25:03.787Z,98503.71
2023-05-07T21:27:33.675Z,98507.48
2023-05-07T21:30:04.412Z,98511.27
2023-05-07T21:32:34.871Z,98508.52
2023-05-07T21:35:05.500Z,98513.14
2023-05-07T21:37:35.476Z,98506.63
2023-05-07T21:40:06.331Z,98506.09
2023-05-07T21:42:36.783Z,98508.83
2023-05-07T21:45:08.507Z,98507.13
2023-05-07T21:47:39.644Z,98504.38
2023-05-07T21:50:11.517Z,98504.89
2023-05-07T21:52:42.076Z,98510.21
2023-05-07T21:55:12.623Z,98510.56
2023-05-07T21:57:50.773Z,98508.68
2023-05-07T22:00:24.465Z,98505.07
2023-05-07T22:02:55.015Z,98510.55
2023-05-07T22:05:26.764Z,98508.48
2023-05-07T22:07:56.564Z,98515.84
2023-05-07T22:10:26.660Z,98515.35
2023-05-07T22:12:59.696Z,98510.88
2023-05-07T22:15:29.825Z,98509.52
2023-05-07T22:17:59.787Z,98507.63
2023-05-07T22:20:29.795Z,98504.38
2023-05-07T22:22:59.686Z,98516.35
2023-05-07T22:25:34.821Z,98516.34
2023-05-07T22:28:05.537Z,98520.42
2023-05-07T22:30:35.896Z,98519.54
2023-05-07T22:33:06.564Z,98524.67
2023-05-07T22:35:36.591Z,98520.40
2023-05-07T22:38:06.651Z,98520.89
2023-05-07T22:40:36.198Z,98515.75
2023-05-07T22:43:06.527Z,98510.27
2023-05-07T22:45:36.573Z,98508.73
2023-05-07T22:48:07.916Z,98503.63
2023-05-07T22:50:39.279Z,98508.77
2023-05-07T22:53:09.238Z,98508.09
2023-05-07T22:55:39.029Z,98502.91
2023-05-07T22:58:09.074Z,98509.40
2023-05-07T23:00:38.995Z,98508.55
2023-05-07T23:03:09.185Z,98506.17
2023-05-07T23:05:39.693Z,98503.25
2023-05-07T23:08:09.439Z,98501.55
2023-05-07T23:10:39.518Z,98499.00
2023-05-07T23:13:14.941Z,98501.22
2023-05-07T23:15:45.083Z,98500.53
2023-05-07T23:18:14.871Z,98497.61
2023-05-07T23:20:45.444Z,98497.61
2023-05-07T23:23:15.402Z,98496.23
2023-05-07T23:25:46.644Z,98495.57
2023-05-07T23:28:16.421Z,98488.56
2023-05-07T23:30:46.572Z,98486.16
2023-05-07T23:33:16.668Z,98486.34
2023-05-07T23:35:46.461Z,98485.15
2023-05-07T23:38:16.296Z,98486.00
2023-05-07T23:40:46.319Z,98486.50
2023-05-07T23:43:16.229Z,98488.70
2023-05-07T23:45:46.718Z,98485.59
2023-05-07T23:48:16.611Z,98489.52
2023-05-07T23:50:46.459Z,98491.20
2023-05-07T23:53:16.349Z,98492.70
2023-05-07T23:55:46.332Z,98492.80
2023-05-07T23:58:16.400Z,98492.64
